Terminal Aerodrome Forecast
Issued by NWS San Angelo, TX

Home | Current Version | Previous Version | Text Only | Print | Product List | Glossary On
Versions: 1 2 3 4 5 6 7 8 9 10 11 12 13 14 15 16 17 18 19 20 21 22 23 24 25 26 27
438
FTUS44 KSJT 230528 CCA
TAFABI
TAF COR
KABI 230528Z 2306/2406 14005KT 2SM -DZ BR BKN004
      TEMPO 2306/2309 1/2SM FG
     FM231400 09006KT 3SM BR VCSH OVC004
     FM231900 18007KT 6SM BR VCSH BKN007=

USA.gov is the U.S. government's official web portal to all federal, state and local government web resources and services.